createdAt,value
2022-10-31T00:00:55.000Z,0
2022-10-31T00:02:11.000Z,0
2022-10-31T00:03:27.000Z,0
2022-10-31T00:04:43.000Z,0
2022-10-31T00:06:00.000Z,0
2022-10-31T00:07:15.000Z,0
2022-10-31T00:08:31.000Z,0
2022-10-31T00:09:47.000Z,0
2022-10-31T00:11:03.000Z,0
2022-10-31T00:12:20.000Z,0
2022-10-31T00:13:36.000Z,0
2022-10-31T00:14:52.000Z,0
2022-10-31T00:16:08.000Z,0
2022-10-31T00:17:24.000Z,0
2022-10-31T00:18:41.000Z,0
2022-10-31T00:19:57.000Z,0
2022-10-31T00:21:13.000Z,0
2022-10-31T00:22:29.000Z,0
2022-10-31T00:23:44.000Z,0
2022-10-31T00:25:00.000Z,0
2022-10-31T00:26:17.000Z,0
2022-10-31T00:27:33.000Z,0
2022-10-31T00:28:49.000Z,0
2022-10-31T00:30:05.000Z,0
2022-10-31T00:31:21.000Z,0
2022-10-31T00:32:38.000Z,0
2022-10-31T00:33:54.000Z,0
2022-10-31T00:35:10.000Z,0
2022-10-31T00:36:26.000Z,0
2022-10-31T00:37:42.000Z,0
2022-10-31T00:38:59.000Z,0
2022-10-31T00:40:14.000Z,0
2022-10-31T00:41:30.000Z,0
2022-10-31T00:42:46.000Z,0
2022-10-31T00:44:02.000Z,0
2022-10-31T00:45:19.000Z,0
2022-10-31T00:46:35.000Z,0
2022-10-31T00:47:51.000Z,0
2022-10-31T00:49:07.000Z,0
2022-10-31T00:50:23.000Z,0
2022-10-31T00:51:39.971Z,0
2022-10-31T00:52:56.000Z,0
2022-10-31T00:54:12.000Z,0
2022-10-31T00:55:28.000Z,0
2022-10-31T00:56:43.000Z,0
2022-10-31T00:57:59.000Z,0
2022-10-31T00:59:16.000Z,0
2022-10-31T01:00:32.000Z,0
2022-10-31T01:01:48.000Z,0
2022-10-31T01:03:04.000Z,0
2022-10-31T01:04:20.000Z,0
2022-10-31T01:05:37.000Z,0
2022-10-31T01:06:53.000Z,0
2022-10-31T01:08:09.000Z,0
2022-10-31T01:09:25.000Z,0
2022-10-31T01:10:41.000Z,0
2022-10-31T01:11:58.000Z,0
2022-10-31T01:13:13.000Z,0
2022-10-31T01:14:29.000Z,0
2022-10-31T01:15:45.000Z,0
2022-10-31T01:17:01.000Z,0
2022-10-31T01:18:17.000Z,0
2022-10-31T01:19:34.000Z,0
2022-10-31T01:20:50.000Z,0
2022-10-31T01:22:06.000Z,0
2022-10-31T01:23:22.000Z,0
2022-10-31T01:24:38.000Z,0
2022-10-31T01:25:55.000Z,0
2022-10-31T01:27:11.000Z,0
2022-10-31T01:28:27.000Z,0
2022-10-31T01:29:42.000Z,0
2022-10-31T01:30:58.000Z,0
2022-10-31T01:32:15.000Z,0
2022-10-31T01:33:31.000Z,0
2022-10-31T01:34:47.000Z,0
2022-10-31T01:36:03.000Z,0
2022-10-31T01:37:18.000Z,0
2022-10-31T01:38:35.000Z,0
2022-10-31T01:39:51.000Z,0
2022-10-31T01:41:07.000Z,0
2022-10-31T01:42:23.000Z,0
2022-10-31T01:43:39.000Z,0
2022-10-31T01:44:55.000Z,0
2022-10-31T01:46:12.000Z,0
2022-10-31T01:47:28.000Z,0
2022-10-31T01:48:44.000Z,0
2022-10-31T01:50:00.000Z,0
2022-10-31T01:51:16.000Z,0
2022-10-31T01:52:33.000Z,0
2022-10-31T01:53:49.000Z,0
2022-10-31T01:55:04.000Z,0
2022-10-31T01:56:20.000Z,0
2022-10-31T01:57:36.000Z,0
2022-10-31T01:58:53.000Z,0
2022-10-31T02:00:09.000Z,0
2022-10-31T02:01:25.000Z,0
2022-10-31T02:02:41.000Z,0
2022-10-31T02:03:57.000Z,0
2022-10-31T02:05:14.000Z,0
2022-10-31T02:06:30.000Z,0
2022-10-31T02:07:46.000Z,0
2022-10-31T02:09:02.000Z,0
2022-10-31T02:10:18.000Z,0
2022-10-31T02:11:33.000Z,0
2022-10-31T02:12:50.000Z,0
2022-10-31T02:14:06.000Z,0
2022-10-31T02:15:22.000Z,0
2022-10-31T02:16:38.000Z,0
2022-10-31T02:17:54.000Z,0
2022-10-31T02:19:11.000Z,0
2022-10-31T02:20:27.000Z,0
2022-10-31T02:21:43.000Z,0
2022-10-31T02:22:59.000Z,0
2022-10-31T02:24:15.000Z,0
2022-10-31T02:25:32.000Z,0
2022-10-31T02:26:48.000Z,0
2022-10-31T02:28:03.000Z,0
2022-10-31T02:29:19.000Z,0
2022-10-31T02:30:35.000Z,0
2022-10-31T02:31:51.000Z,0
2022-10-31T02:33:08.000Z,0
2022-10-31T02:34:24.000Z,0
2022-10-31T02:35:40.000Z,0
2022-10-31T02:36:56.000Z,0
2022-10-31T02:38:12.000Z,0
2022-10-31T02:39:29.000Z,0
2022-10-31T02:40:45.000Z,0
2022-10-31T02:42:01.000Z,0
2022-10-31T02:43:17.000Z,0
2022-10-31T02:44:32.000Z,0
2022-10-31T02:45:49.000Z,0
2022-10-31T02:47:05.000Z,0
2022-10-31T02:48:21.000Z,0
2022-10-31T02:49:37.000Z,0
2022-10-31T02:50:53.000Z,0
2022-10-31T02:52:09.000Z,0
2022-10-31T02:53:26.000Z,0
2022-10-31T02:54:42.000Z,0
2022-10-31T02:55:58.000Z,0
2022-10-31T02:57:14.000Z,0
2022-10-31T02:58:30.000Z,0
2022-10-31T02:59:47.000Z,0
2022-10-31T03:01:02.000Z,0
2022-10-31T03:02:18.000Z,0
2022-10-31T03:03:34.000Z,0
2022-10-31T03:04:50.000Z,0
2022-10-31T03:06:07.000Z,0
2022-10-31T03:07:23.000Z,0
2022-10-31T03:08:39.000Z,0
2022-10-31T03:09:55.000Z,0
2022-10-31T03:11:11.000Z,0
2022-10-31T03:12:27.000Z,0
2022-10-31T03:13:44.000Z,0
2022-10-31T03:15:00.000Z,0
2022-10-31T03:16:16.000Z,0
2022-10-31T03:17:32.000Z,0
2022-10-31T03:18:47.000Z,0
2022-10-31T03:20:04.000Z,0
2022-10-31T03:21:20.000Z,0
2022-10-31T03:22:36.000Z,0
2022-10-31T03:23:52.000Z,0
2022-10-31T03:25:08.000Z,0
2022-10-31T03:26:25.000Z,0
2022-10-31T03:27:41.000Z,0
2022-10-31T03:28:57.000Z,0
2022-10-31T03:30:13.853Z,0
2022-10-31T03:31:29.000Z,0
2022-10-31T03:32:46.000Z,0
2022-10-31T03:34:02.000Z,0
2022-10-31T03:35:17.000Z,0
2022-10-31T03:36:33.000Z,0
2022-10-31T03:37:49.000Z,0
2022-10-31T03:39:05.000Z,0
2022-10-31T03:40:22.000Z,0
2022-10-31T03:41:38.000Z,0
2022-10-31T03:42:54.000Z,0
2022-10-31T03:44:10.000Z,0
2022-10-31T03:45:26.000Z,0
2022-10-31T03:46:43.000Z,0
2022-10-31T03:47:59.000Z,0
2022-10-31T03:49:15.000Z,0
2022-10-31T03:50:31.000Z,0
2022-10-31T03:51:46.000Z,0
2022-10-31T03:53:03.000Z,0
2022-10-31T03:54:19.000Z,0
2022-10-31T03:55:35.000Z,0
2022-10-31T03:56:51.000Z,0
2022-10-31T03:58:07.000Z,0
2022-10-31T03:59:23.000Z,0
2022-10-31T04:00:40.000Z,0
2022-10-31T04:01:56.000Z,0
2022-10-31T04:03:12.000Z,0
2022-10-31T04:04:28.000Z,0
2022-10-31T04:05:44.000Z,0
2022-10-31T04:07:01.000Z,0
2022-10-31T04:08:16.000Z,0
2022-10-31T04:09:32.000Z,0
2022-10-31T04:10:48.000Z,0
2022-10-31T04:12:04.000Z,0
2022-10-31T04:13:21.000Z,0
2022-10-31T04:14:37.000Z,0
2022-10-31T04:15:53.000Z,0
2022-10-31T04:17:09.000Z,0
2022-10-31T04:18:25.000Z,0
2022-10-31T04:19:41.000Z,0
2022-10-31T04:20:58.000Z,0
2022-10-31T04:22:14.000Z,0
2022-10-31T04:23:30.000Z,0
2022-10-31T04:24:45.000Z,0
2022-10-31T04:26:01.000Z,0
2022-10-31T04:27:18.000Z,0
2022-10-31T04:28:34.000Z,0
2022-10-31T04:29:50.000Z,0
2022-10-31T04:31:06.000Z,0
2022-10-31T04:32:22.000Z,0
2022-10-31T04:33:39.000Z,0
2022-10-31T04:34:55.000Z,0
2022-10-31T04:36:11.000Z,0
2022-10-31T04:37:27.000Z,0
2022-10-31T04:38:43.000Z,0
2022-10-31T04:40:00.000Z,0
2022-10-31T04:41:15.000Z,0
2022-10-31T04:42:31.000Z,0
2022-10-31T04:43:47.000Z,0
2022-10-31T04:45:03.000Z,0
2022-10-31T04:46:19.000Z,0
2022-10-31T04:47:36.000Z,0
2022-10-31T04:48:52.000Z,0
2022-10-31T04:50:08.000Z,0
2022-10-31T04:51:24.000Z,0
2022-10-31T04:52:40.000Z,0
2022-10-31T04:53:57.000Z,0
2022-10-31T04:55:13.000Z,0
2022-10-31T04:56:29.000Z,0
2022-10-31T04:57:44.000Z,0
2022-10-31T04:59:00.000Z,0
2022-10-31T05:00:17.000Z,0
2022-10-31T05:01:33.000Z,0
2022-10-31T05:02:49.000Z,0
2022-10-31T05:04:05.000Z,0
2022-10-31T05:05:21.000Z,0
2022-10-31T05:06:37.000Z,0
2022-10-31T05:07:54.000Z,0
2022-10-31T05:09:10.000Z,0
2022-10-31T05:10:26.000Z,0
2022-10-31T05:11:42.000Z,0
2022-10-31T05:12:58.000Z,0
2022-10-31T05:14:14.000Z,0
2022-10-31T05:15:30.000Z,0
2022-10-31T05:16:46.000Z,0
2022-10-31T05:18:02.000Z,0
2022-10-31T05:19:18.000Z,0
2022-10-31T05:20:35.000Z,0
2022-10-31T05:21:51.000Z,0
2022-10-31T05:23:07.000Z,0
2022-10-31T05:24:23.831Z,0
2022-10-31T05:25:39.000Z,0
2022-10-31T05:26:55.000Z,0
2022-10-31T05:28:12.000Z,0
2022-10-31T05:29:28.000Z,0
2022-10-31T05:30:43.000Z,0
2022-10-31T05:31:59.000Z,0
2022-10-31T05:33:15.000Z,0
2022-10-31T05:34:32.000Z,0
2022-10-31T05:35:48.000Z,0
2022-10-31T05:37:04.000Z,0
2022-10-31T05:38:20.000Z,0
2022-10-31T05:39:36.000Z,0
2022-10-31T05:40:53.000Z,0
2022-10-31T05:42:09.000Z,0
2022-10-31T05:43:25.000Z,0
2022-10-31T05:44:41.000Z,0
2022-10-31T05:45:57.000Z,0
2022-10-31T05:47:13.000Z,0
2022-10-31T05:48:29.000Z,4
2022-10-31T05:49:45.000Z,0
2022-10-31T05:51:01.000Z,4
2022-10-31T05:52:16.000Z,4
2022-10-31T05:53:32.000Z,4
2022-10-31T05:54:49.000Z,4
2022-10-31T05:56:05.000Z,4
2022-10-31T05:57:21.000Z,8
2022-10-31T05:58:37.000Z,8
2022-10-31T05:59:53.000Z,12
2022-10-31T06:01:10.000Z,16
2022-10-31T06:02:26.000Z,20
2022-10-31T06:03:42.000Z,24
2022-10-31T06:04:58.000Z,28
2022-10-31T06:06:14.000Z,36
2022-10-31T06:07:31.000Z,44
2022-10-31T06:08:46.000Z,52
2022-10-31T06:10:02.000Z,64
2022-10-31T06:11:18.000Z,80
2022-10-31T06:12:34.000Z,96
2022-10-31T06:13:50.000Z,120
2022-10-31T06:15:07.000Z,140
2022-10-31T06:16:23.000Z,160
2022-10-31T06:17:39.000Z,176
2022-10-31T06:18:55.000Z,192
2022-10-31T06:20:11.000Z,212
2022-10-31T06:21:28.000Z,232
2022-10-31T06:22:44.000Z,256
2022-10-31T06:24:00.000Z,276
2022-10-31T06:25:15.000Z,296
2022-10-31T06:26:31.000Z,320
2022-10-31T06:27:48.000Z,352
2022-10-31T06:29:04.000Z,384
2022-10-31T06:30:20.000Z,424
2022-10-31T06:31:36.000Z,476
2022-10-31T06:32:52.000Z,520
2022-10-31T06:34:08.000Z,560
2022-10-31T06:35:25.000Z,604
2022-10-31T06:36:41.000Z,648
2022-10-31T06:37:57.000Z,688
2022-10-31T06:39:13.000Z,744
2022-10-31T06:40:29.000Z,808
2022-10-31T06:41:45.000Z,876
2022-10-31T06:43:01.000Z,944
2022-10-31T06:44:17.000Z,1036
2022-10-31T06:45:33.000Z,1132
2022-10-31T06:46:49.000Z,1228
2022-10-31T06:48:06.000Z,1296
2022-10-31T06:49:22.000Z,1340
2022-10-31T06:50:38.000Z,1376
2022-10-31T06:51:54.000Z,1424
2022-10-31T06:53:10.000Z,1480
2022-10-31T06:54:27.000Z,1520
2022-10-31T06:55:43.000Z,1572
2022-10-31T06:56:59.000Z,1632
2022-10-31T06:58:14.000Z,1684
2022-10-31T06:59:30.000Z,1760
2022-10-31T07:00:46.000Z,1860
2022-10-31T07:02:03.000Z,1960
2022-10-31T07:03:19.000Z,2044
2022-10-31T07:04:35.000Z,2140
2022-10-31T07:05:51.000Z,2272
2022-10-31T07:07:07.000Z,2420
2022-10-31T07:08:24.000Z,2564
2022-10-31T07:09:40.000Z,2680
2022-10-31T07:10:56.000Z,2752
2022-10-31T07:12:12.000Z,2796
2022-10-31T07:13:28.000Z,2860
2022-10-31T07:14:44.000Z,2924
2022-10-31T07:16:00.000Z,3004
2022-10-31T07:17:16.000Z,3172
2022-10-31T07:18:32.000Z,3280
2022-10-31T07:19:48.000Z,3296
2022-10-31T07:21:04.000Z,3304
2022-10-31T07:22:21.000Z,3280
2022-10-31T07:23:37.000Z,3364
2022-10-31T07:24:53.000Z,3488
2022-10-31T07:26:09.000Z,3460
2022-10-31T07:27:25.000Z,3428
2022-10-31T07:28:42.000Z,3500
2022-10-31T07:29:58.000Z,3624
2022-10-31T07:31:13.000Z,3672
2022-10-31T07:32:29.000Z,3724
2022-10-31T07:33:45.000Z,3764
2022-10-31T07:35:02.000Z,3824
2022-10-31T07:36:18.000Z,3880
2022-10-31T07:37:34.000Z,3932
2022-10-31T07:38:50.000Z,4072
2022-10-31T07:40:06.000Z,4216
2022-10-31T07:41:22.000Z,4372
2022-10-31T07:42:39.000Z,4524
2022-10-31T07:43:55.000Z,4680
2022-10-31T07:45:11.000Z,4872
2022-10-31T07:46:27.000Z,5124
2022-10-31T07:47:42.000Z,5336
2022-10-31T07:48:59.000Z,5460
2022-10-31T07:50:15.000Z,5552
2022-10-31T07:51:31.000Z,5608
2022-10-31T07:52:47.000Z,5648
2022-10-31T07:54:03.000Z,5692
2022-10-31T07:55:20.000Z,5716
2022-10-31T07:56:36.000Z,5704
2022-10-31T07:57:52.000Z,5788
2022-10-31T07:59:08.000Z,5788
2022-10-31T08:00:24.000Z,5820
2022-10-31T08:01:41.000Z,5740
2022-10-31T08:02:57.000Z,5824
2022-10-31T08:04:12.000Z,5832
2022-10-31T08:05:28.000Z,5940
2022-10-31T08:06:44.000Z,6124
2022-10-31T08:08:00.000Z,6276
2022-10-31T08:09:17.000Z,5952
2022-10-31T08:10:33.000Z,5728
2022-10-31T08:11:49.000Z,5720
2022-10-31T08:13:05.000Z,5580
2022-10-31T08:14:21.000Z,5464
2022-10-31T08:15:38.000Z,5396
2022-10-31T08:16:54.000Z,5248
2022-10-31T08:18:10.000Z,5080
2022-10-31T08:19:26.000Z,4852
2022-10-31T08:20:41.000Z,4720
2022-10-31T08:21:58.000Z,4616
2022-10-31T08:23:14.000Z,4612
2022-10-31T08:24:30.000Z,4556
2022-10-31T08:25:46.000Z,4564
2022-10-31T08:27:03.010Z,4568
2022-10-31T08:28:18.000Z,4536
2022-10-31T08:29:35.000Z,4604
2022-10-31T08:30:51.000Z,4536
2022-10-31T08:32:07.000Z,4448
2022-10-31T08:33:23.000Z,4212
2022-10-31T08:34:39.000Z,4204
2022-10-31T08:35:56.000Z,4328
2022-10-31T08:37:11.000Z,4372
2022-10-31T08:38:27.000Z,4364
2022-10-31T08:39:43.000Z,4580
2022-10-31T08:40:59.000Z,4508
2022-10-31T08:42:16.000Z,4612
2022-10-31T08:43:32.000Z,4660
2022-10-31T08:44:48.000Z,4920
2022-10-31T08:46:04.000Z,4936
2022-10-31T08:47:20.000Z,4960
2022-10-31T08:48:36.000Z,4964
2022-10-31T08:49:53.000Z,4948
2022-10-31T08:51:09.000Z,5000
2022-10-31T08:52:25.000Z,5224
2022-10-31T08:53:40.000Z,5352
2022-10-31T08:54:56.000Z,5424
2022-10-31T08:56:13.000Z,5404
2022-10-31T08:57:29.000Z,5472
2022-10-31T08:58:45.000Z,5416
2022-10-31T09:00:01.000Z,5284
2022-10-31T09:01:17.000Z,5440
2022-10-31T09:02:34.000Z,5492
2022-10-31T09:03:50.000Z,5436
2022-10-31T09:05:06.000Z,5236
2022-10-31T09:06:22.000Z,5232
2022-10-31T09:07:38.000Z,5120
2022-10-31T09:08:54.000Z,5180
2022-10-31T09:10:10.000Z,5240
2022-10-31T09:11:26.000Z,5444
2022-10-31T09:12:42.000Z,5380
2022-10-31T09:13:58.000Z,5600
2022-10-31T09:15:14.000Z,5412
2022-10-31T09:16:31.000Z,5252
2022-10-31T09:17:47.000Z,5192
2022-10-31T09:19:03.000Z,5588
2022-10-31T09:20:19.000Z,5452
2022-10-31T09:21:35.000Z,5528
2022-10-31T09:22:52.000Z,5636
2022-10-31T09:24:08.000Z,5876
2022-10-31T09:25:24.000Z,6044
2022-10-31T09:26:39.000Z,6324
2022-10-31T09:27:55.000Z,6524
2022-10-31T09:29:12.000Z,6824
2022-10-31T09:30:28.000Z,8032
2022-10-31T09:31:44.000Z,8356
2022-10-31T09:33:00.000Z,7816
2022-10-31T09:34:16.000Z,8808
2022-10-31T09:35:32.000Z,8336
2022-10-31T09:36:49.000Z,8164
2022-10-31T09:38:05.000Z,8348
2022-10-31T09:39:21.000Z,8248
2022-10-31T09:40:37.000Z,7312
2022-10-31T09:41:53.000Z,8408
2022-10-31T09:43:09.000Z,9080
2022-10-31T09:44:25.000Z,10224
2022-10-31T09:45:41.000Z,10428
2022-10-31T09:46:57.000Z,13424
2022-10-31T09:48:13.000Z,13404
2022-10-31T09:49:30.000Z,13036
2022-10-31T09:50:46.000Z,16448
2022-10-31T09:52:02.000Z,16256
2022-10-31T09:53:18.000Z,8656
2022-10-31T09:54:34.000Z,7728
2022-10-31T09:55:50.000Z,8260
2022-10-31T09:57:07.000Z,7092
2022-10-31T09:58:23.000Z,7448
2022-10-31T09:59:38.000Z,7560
2022-10-31T10:00:54.000Z,7700
2022-10-31T10:02:10.000Z,8284
2022-10-31T10:03:27.000Z,8924
2022-10-31T10:04:43.000Z,9284
2022-10-31T10:05:59.000Z,9700
2022-10-31T10:07:14.000Z,9896
2022-10-31T10:08:30.000Z,10180
2022-10-31T10:09:47.000Z,10284
2022-10-31T10:11:03.000Z,10036
2022-10-31T10:12:19.000Z,10280
2022-10-31T10:13:35.852Z,10560
2022-10-31T10:14:51.000Z,10876
2022-10-31T10:16:08.000Z,11112
2022-10-31T10:17:24.000Z,11596
2022-10-31T10:18:40.000Z,11852
2022-10-31T10:19:56.000Z,11796
2022-10-31T10:21:12.000Z,11640
2022-10-31T10:22:28.000Z,11304
2022-10-31T10:23:44.000Z,10856
2022-10-31T10:25:00.000Z,10792
2022-10-31T10:26:16.000Z,11436
2022-10-31T10:27:32.000Z,12888
2022-10-31T10:28:48.000Z,13396
2022-10-31T10:30:05.000Z,13640
2022-10-31T10:31:21.000Z,13552
2022-10-31T10:32:37.000Z,15164
2022-10-31T10:33:53.000Z,16124
2022-10-31T10:35:09.000Z,15036
2022-10-31T10:36:26.000Z,14496
2022-10-31T10:37:42.000Z,13804
2022-10-31T10:38:58.000Z,13048
2022-10-31T10:40:13.000Z,12768
2022-10-31T10:41:29.000Z,12284
2022-10-31T10:42:45.000Z,12068
2022-10-31T10:44:02.000Z,11628
2022-10-31T10:45:18.000Z,11744
2022-10-31T10:46:34.000Z,10840
2022-10-31T10:47:50.000Z,10912
2022-10-31T10:49:06.000Z,10988
2022-10-31T10:50:23.000Z,10928
2022-10-31T10:51:39.000Z,11200
2022-10-31T10:52:55.000Z,11288
2022-10-31T10:54:11.000Z,11288
2022-10-31T10:55:27.000Z,11476
2022-10-31T10:56:43.000Z,11588
2022-10-31T10:57:59.000Z,10856
2022-10-31T10:59:15.000Z,10336
2022-10-31T11:00:31.000Z,10088
2022-10-31T11:01:47.000Z,10056
2022-10-31T11:03:03.000Z,9808
2022-10-31T11:04:20.000Z,9704
2022-10-31T11:05:36.000Z,9620
2022-10-31T11:06:52.000Z,9724
2022-10-31T11:08:08.000Z,9864
2022-10-31T11:09:24.000Z,10192
2022-10-31T11:10:41.000Z,10888
2022-10-31T11:11:57.000Z,11592
2022-10-31T11:13:12.000Z,12464
2022-10-31T11:14:28.000Z,13024
2022-10-31T11:15:44.000Z,13232
2022-10-31T11:17:01.000Z,13848
2022-10-31T11:18:17.000Z,14160
2022-10-31T11:19:33.000Z,13960
2022-10-31T11:20:49.000Z,14084
2022-10-31T11:22:05.000Z,13748
2022-10-31T11:23:21.000Z,13436
2022-10-31T11:24:38.000Z,12612
2022-10-31T11:25:54.000Z,11536
2022-10-31T11:27:10.000Z,10644
2022-10-31T11:28:26.000Z,10356
2022-10-31T11:29:41.000Z,10152
2022-10-31T11:30:58.000Z,10480
2022-10-31T11:32:14.000Z,10968
2022-10-31T11:33:30.000Z,11056
2022-10-31T11:34:46.000Z,10936
2022-10-31T11:36:02.000Z,10720
2022-10-31T11:37:19.000Z,10664
2022-10-31T11:38:35.000Z,10576
2022-10-31T11:39:51.000Z,10732
2022-10-31T11:41:07.000Z,10984
2022-10-31T11:42:23.000Z,11128
2022-10-31T11:43:39.000Z,11076
2022-10-31T11:44:56.000Z,10992
2022-10-31T11:46:11.000Z,10888
2022-10-31T11:47:27.000Z,10840
2022-10-31T11:48:43.000Z,10496
2022-10-31T11:49:59.000Z,11164
2022-10-31T11:51:16.000Z,11516
2022-10-31T11:52:32.000Z,11632
2022-10-31T11:53:48.000Z,9824
2022-10-31T11:55:04.000Z,9068
2022-10-31T11:56:20.000Z,8548
2022-10-31T11:57:37.000Z,8256
2022-10-31T11:58:53.000Z,7976
2022-10-31T12:00:09.000Z,7612
2022-10-31T12:01:25.000Z,7216
2022-10-31T12:02:40.000Z,6840
2022-10-31T12:03:57.000Z,6568
2022-10-31T12:05:13.000Z,6324
2022-10-31T12:06:29.000Z,6292
2022-10-31T12:07:45.000Z,6360
2022-10-31T12:09:01.000Z,6500
2022-10-31T12:10:17.000Z,6560
2022-10-31T12:11:34.000Z,6480
2022-10-31T12:12:50.000Z,6560
2022-10-31T12:14:06.000Z,6608
2022-10-31T12:15:22.000Z,6520
2022-10-31T12:16:38.000Z,6456
2022-10-31T12:17:55.000Z,6392
2022-10-31T12:19:10.000Z,6380
2022-10-31T12:20:26.000Z,6676
2022-10-31T12:21:42.000Z,6960
2022-10-31T12:22:58.000Z,7588
2022-10-31T12:24:15.000Z,8496
2022-10-31T12:25:31.000Z,8592
2022-10-31T12:26:47.000Z,8500
2022-10-31T12:28:03.000Z,8540
2022-10-31T12:29:19.000Z,8564
2022-10-31T12:30:36.000Z,8532
2022-10-31T12:31:52.000Z,8456
2022-10-31T12:33:08.000Z,8456
2022-10-31T12:34:24.000Z,8444
2022-10-31T12:35:39.000Z,8384
2022-10-31T12:36:55.000Z,8316
2022-10-31T12:38:12.000Z,8164
2022-10-31T12:39:28.000Z,8028
2022-10-31T12:40:44.000Z,7988
2022-10-31T12:42:00.000Z,8012
2022-10-31T12:43:16.000Z,8092
2022-10-31T12:44:33.000Z,8424
2022-10-31T12:45:49.000Z,8500
2022-10-31T12:47:05.000Z,8356
2022-10-31T12:48:21.000Z,8528
2022-10-31T12:49:37.000Z,8436
2022-10-31T12:50:54.000Z,8060
2022-10-31T12:52:10.000Z,7772
2022-10-31T12:53:25.000Z,7624
2022-10-31T12:54:41.000Z,7516
2022-10-31T12:55:57.000Z,7352
2022-10-31T12:57:13.000Z,7160
2022-10-31T12:58:30.000Z,7068
2022-10-31T12:59:46.000Z,6980
2022-10-31T13:01:02.000Z,6812
2022-10-31T13:02:18.000Z,6660
2022-10-31T13:03:34.000Z,6384
2022-10-31T13:04:51.000Z,6192
2022-10-31T13:06:07.000Z,6144
2022-10-31T13:07:23.000Z,6028
2022-10-31T13:08:39.000Z,5892
2022-10-31T13:09:55.000Z,5724
2022-10-31T13:11:11.000Z,5480
2022-10-31T13:12:27.000Z,5280
2022-10-31T13:13:43.000Z,5128
2022-10-31T13:14:59.000Z,5032
2022-10-31T13:16:15.000Z,5124
2022-10-31T13:17:32.000Z,5508
2022-10-31T13:18:48.000Z,5748
2022-10-31T13:20:04.000Z,6160
2022-10-31T13:21:20.000Z,6492
2022-10-31T13:22:36.000Z,6736
2022-10-31T13:23:52.000Z,6952
2022-10-31T13:25:09.000Z,7104
2022-10-31T13:26:25.000Z,7204
2022-10-31T13:27:40.000Z,7148
2022-10-31T13:28:56.000Z,7092
2022-10-31T13:30:12.000Z,6940
2022-10-31T13:31:29.000Z,6660
2022-10-31T13:32:45.000Z,6276
2022-10-31T13:34:01.000Z,5920
2022-10-31T13:35:17.000Z,5660
2022-10-31T13:36:33.000Z,5484
2022-10-31T13:37:50.000Z,5276
2022-10-31T13:39:06.000Z,4960
2022-10-31T13:40:22.000Z,4624
2022-10-31T13:41:38.000Z,4368
2022-10-31T13:42:54.000Z,4192
2022-10-31T13:44:10.000Z,4120
2022-10-31T13:45:26.000Z,4072
2022-10-31T13:46:42.000Z,4072
2022-10-31T13:47:58.000Z,4116
2022-10-31T13:49:14.000Z,4232
2022-10-31T13:50:30.000Z,4400
2022-10-31T13:51:47.000Z,4568
2022-10-31T13:53:03.000Z,4768
2022-10-31T13:54:19.000Z,4952
2022-10-31T13:55:35.000Z,5096
2022-10-31T13:56:51.000Z,5180
2022-10-31T13:58:08.000Z,5172
2022-10-31T13:59:24.000Z,5160
2022-10-31T14:00:39.000Z,5108
2022-10-31T14:01:55.000Z,5020
2022-10-31T14:03:11.000Z,4900
2022-10-31T14:04:28.000Z,4768
2022-10-31T14:05:44.000Z,4628
2022-10-31T14:07:00.000Z,4464
2022-10-31T14:08:16.000Z,4332
2022-10-31T14:09:32.000Z,4276
2022-10-31T14:10:49.000Z,4200
2022-10-31T14:12:05.000Z,4144
2022-10-31T14:13:21.000Z,4076
2022-10-31T14:14:37.000Z,3996
2022-10-31T14:15:53.000Z,3892
2022-10-31T14:17:08.000Z,3816
2022-10-31T14:18:25.000Z,3752
2022-10-31T14:19:41.000Z,3712
2022-10-31T14:20:57.000Z,3692
2022-10-31T14:22:12.000Z,3708
2022-10-31T14:23:28.000Z,3736
2022-10-31T14:24:45.000Z,3744
2022-10-31T14:26:01.000Z,3764
2022-10-31T14:27:17.000Z,3796
2022-10-31T14:28:33.000Z,3800
2022-10-31T14:29:49.000Z,3772
2022-10-31T14:31:06.000Z,3728
2022-10-31T14:32:22.000Z,3716
2022-10-31T14:33:38.000Z,3740
2022-10-31T14:34:54.000Z,3732
2022-10-31T14:36:10.000Z,3648
2022-10-31T14:37:26.000Z,3552
2022-10-31T14:38:42.000Z,3416
2022-10-31T14:39:58.000Z,3272
2022-10-31T14:41:14.000Z,3148
2022-10-31T14:42:30.000Z,3048
2022-10-31T14:43:46.000Z,2984
2022-10-31T14:45:03.000Z,2952
2022-10-31T14:46:19.000Z,2956
2022-10-31T14:47:35.000Z,2980
2022-10-31T14:48:51.000Z,3016
2022-10-31T14:50:07.000Z,3040
2022-10-31T14:51:24.000Z,3028
2022-10-31T14:52:40.000Z,3000
2022-10-31T14:53:56.000Z,2976
2022-10-31T14:55:11.000Z,2964
2022-10-31T14:56:27.000Z,2960
2022-10-31T14:57:44.000Z,2920
2022-10-31T14:59:00.000Z,2872
2022-10-31T15:00:16.000Z,2832
2022-10-31T15:01:32.000Z,2812
2022-10-31T15:02:48.000Z,2800
2022-10-31T15:04:04.000Z,2772
2022-10-31T15:05:21.000Z,2748
2022-10-31T15:06:37.000Z,2736
2022-10-31T15:07:53.000Z,2700
2022-10-31T15:09:09.000Z,2644
2022-10-31T15:10:25.000Z,2612
2022-10-31T15:11:41.000Z,2628
2022-10-31T15:12:57.000Z,2652
2022-10-31T15:14:13.000Z,2616
2022-10-31T15:15:29.000Z,2512
2022-10-31T15:16:45.000Z,2380
2022-10-31T15:18:02.000Z,2264
2022-10-31T15:19:18.000Z,2188
2022-10-31T15:20:34.000Z,2136
2022-10-31T15:21:50.000Z,2104
2022-10-31T15:23:06.000Z,2080
2022-10-31T15:24:23.000Z,2068
2022-10-31T15:25:39.000Z,2040
2022-10-31T15:26:55.000Z,1996
2022-10-31T15:28:10.000Z,1940
2022-10-31T15:29:26.000Z,1872
2022-10-31T15:30:42.000Z,1788
2022-10-31T15:31:59.000Z,1692
2022-10-31T15:33:15.000Z,1584
2022-10-31T15:34:31.000Z,1460
2022-10-31T15:35:47.000Z,1344
2022-10-31T15:37:03.000Z,1232
2022-10-31T15:38:20.000Z,1136
2022-10-31T15:39:36.000Z,1056
2022-10-31T15:40:52.000Z,980
2022-10-31T15:42:08.000Z,904
2022-10-31T15:43:24.000Z,844
2022-10-31T15:44:40.000Z,780
2022-10-31T15:45:56.000Z,724
2022-10-31T15:47:12.000Z,668
2022-10-31T15:48:28.000Z,620
2022-10-31T15:49:44.000Z,584
2022-10-31T15:51:01.000Z,544
2022-10-31T15:52:17.000Z,500
2022-10-31T15:53:33.000Z,452
2022-10-31T15:54:49.000Z,408
2022-10-31T15:56:05.000Z,372
2022-10-31T15:57:21.000Z,340
2022-10-31T15:58:38.000Z,312
2022-10-31T15:59:54.000Z,284
2022-10-31T16:01:09.000Z,252
2022-10-31T16:02:25.000Z,220
2022-10-31T16:03:41.000Z,192
2022-10-31T16:04:58.000Z,164
2022-10-31T16:06:14.000Z,136
2022-10-31T16:07:30.000Z,112
2022-10-31T16:08:46.000Z,92
2022-10-31T16:10:02.000Z,80
2022-10-31T16:11:19.000Z,68
2022-10-31T16:12:35.000Z,60
2022-10-31T16:13:51.000Z,48
2022-10-31T16:15:07.000Z,40
2022-10-31T16:16:23.000Z,36
2022-10-31T16:17:38.000Z,28
2022-10-31T16:18:55.000Z,20
2022-10-31T16:20:11.000Z,20
2022-10-31T16:21:27.000Z,12
2022-10-31T16:22:43.000Z,12
2022-10-31T16:23:59.000Z,12
2022-10-31T16:25:16.000Z,8
2022-10-31T16:26:32.000Z,4
2022-10-31T16:27:48.000Z,8
2022-10-31T16:29:04.000Z,4
2022-10-31T16:30:20.000Z,0
2022-10-31T16:31:37.000Z,4
2022-10-31T16:32:53.000Z,4
2022-10-31T16:34:08.000Z,0
2022-10-31T16:35:24.000Z,0
2022-10-31T16:36:40.000Z,0
2022-10-31T16:37:57.000Z,0
2022-10-31T16:39:13.000Z,0
2022-10-31T16:40:29.000Z,0
2022-10-31T16:41:45.000Z,0
2022-10-31T16:43:01.000Z,0
2022-10-31T16:44:17.000Z,0
2022-10-31T16:45:34.000Z,0
2022-10-31T16:46:50.000Z,0
2022-10-31T16:48:06.000Z,0
2022-10-31T16:49:22.000Z,0
2022-10-31T16:50:37.000Z,0
2022-10-31T16:51:54.000Z,0
2022-10-31T16:53:10.000Z,0
2022-10-31T16:54:26.000Z,0
2022-10-31T16:55:42.000Z,0
2022-10-31T16:56:58.000Z,0
2022-10-31T16:58:15.000Z,0
2022-10-31T16:59:31.000Z,0
2022-10-31T17:00:47.000Z,0
2022-10-31T17:02:03.000Z,0
2022-10-31T17:03:19.000Z,0
2022-10-31T17:04:36.000Z,0
2022-10-31T17:05:52.000Z,0
2022-10-31T17:07:07.000Z,0
2022-10-31T17:08:23.000Z,0
2022-10-31T17:09:39.000Z,0
2022-10-31T17:10:55.000Z,0
2022-10-31T17:12:12.000Z,0
2022-10-31T17:13:28.000Z,0
2022-10-31T17:14:44.000Z,0
2022-10-31T17:16:00.000Z,0
2022-10-31T17:17:16.000Z,0
2022-10-31T17:18:33.000Z,0
2022-10-31T17:19:49.000Z,0
2022-10-31T17:21:05.000Z,0
2022-10-31T17:22:21.000Z,0
2022-10-31T17:23:36.000Z,0
2022-10-31T17:24:53.000Z,0
2022-10-31T17:26:09.000Z,0
2022-10-31T17:27:25.000Z,0
2022-10-31T17:28:41.000Z,0
2022-10-31T17:29:57.000Z,0
2022-10-31T17:31:13.000Z,0
2022-10-31T17:32:30.000Z,0
2022-10-31T17:33:46.000Z,0
2022-10-31T17:35:02.000Z,0
2022-10-31T17:36:18.000Z,0